sensor_id;sensor_type;location;lat;lon;timestamp;pressure;altitude;pressure_sealevel;temperature;humidity
54439;BME280;40347;53.848;27.498;2023-04-06T00:00:59;1015.3;;;3.5;83
54439;BME280;40347;53.848;27.498;2023-04-06T00:06:11;1015.3;;;3.5;82.5
54439;BME280;40347;53.848;27.498;2023-04-06T00:11:21;1015.3;;;3.5;82.4
54439;BME280;40347;53.848;27.498;2023-04-06T00:16:11;1015.2;;;3.5;82.3
54439;BME280;40347;53.848;27.498;2023-04-06T00:20:53;1015.1;;;3.3;83.2
54439;BME280;40347;53.848;27.498;2023-04-06T00:25:59;1015.1;;;3.4;83.8
54439;BME280;40347;53.848;27.498;2023-04-06T00:31:21;1015.1;;;3.5;83.4
54439;BME280;40347;53.848;27.498;2023-04-06T00:36:11;1015;;;3.4;83.2
54439;BME280;40347;53.848;27.498;2023-04-06T00:41:05;1015;;;3.3;83.9
54439;BME280;40347;53.848;27.498;2023-04-06T00:45:53;1015;;;3.4;83.9
54439;BME280;40347;53.848;27.498;2023-04-06T00:51:11;1014.9;;;3.5;83.8
54439;BME280;40347;53.848;27.498;2023-04-06T00:55:53;1014.9;;;3.6;83.5
54439;BME280;40347;53.848;27.498;2023-04-06T01:01:05;1014.8;;;3.7;83.3
54439;BME280;40347;53.848;27.498;2023-04-06T01:06:21;1014.8;;;4;82.8
54439;BME280;40347;53.848;27.498;2023-04-06T01:10:53;1014.7;;;4.1;82.3
54439;BME280;40347;53.848;27.498;2023-04-06T01:15:57;1014.7;;;4.1;82.3
54439;BME280;40347;53.848;27.498;2023-04-06T01:20:53;1014.8;;;3.9;82.8
54439;BME280;40347;53.848;27.498;2023-04-06T01:25:53;1014.7;;;4;83.2
54439;BME280;40347;53.848;27.498;2023-04-06T01:30:53;1014.6;;;4;83
54439;BME280;40347;53.848;27.498;2023-04-06T01:36:21;1014.6;;;4.1;83
54439;BME280;40347;53.848;27.498;2023-04-06T01:41:09;1014.6;;;4.4;82.6
54439;BME280;40347;53.848;27.498;2023-04-06T01:45:53;1014.6;;;4.4;82.2
54439;BME280;40347;53.848;27.498;2023-04-06T01:50:53;1014.7;;;4.6;81.6
54439;BME280;40347;53.848;27.498;2023-04-06T01:55:53;1014.6;;;4.5;81.6
54439;BME280;40347;53.848;27.498;2023-04-06T02:01:27;1014.6;;;4.2;82.5
54439;BME280;40347;53.848;27.498;2023-04-06T02:05:53;1014.6;;;4.2;83.1
54439;BME280;40347;53.848;27.498;2023-04-06T02:11:05;1014.5;;;4.3;83.3
54439;BME280;40347;53.848;27.498;2023-04-06T02:16:05;1014.6;;;4.3;83.2
54439;BME280;40347;53.848;27.498;2023-04-06T02:20:53;1014.6;;;4.3;83
54439;BME280;40347;53.848;27.498;2023-04-06T02:26:05;1014.6;;;4.4;83.1
54439;BME280;40347;53.848;27.498;2023-04-06T02:31:25;1014.6;;;4.5;82.8
54439;BME280;40347;53.848;27.498;2023-04-06T02:36:21;1014.6;;;4.4;83
54439;BME280;40347;53.848;27.498;2023-04-06T02:41:05;1014.6;;;4.4;83.2
54439;BME280;40347;53.848;27.498;2023-04-06T02:45:53;1014.6;;;4.2;83.8
54439;BME280;40347;53.848;27.498;2023-04-06T02:50:53;1014.6;;;4.1;84.4
54439;BME280;40347;53.848;27.498;2023-04-06T02:55:53;1014.6;;;4.3;84.5
54439;BME280;40347;53.848;27.498;2023-04-06T03:00:53;1014.6;;;4.4;84.3
54439;BME280;40347;53.848;27.498;2023-04-06T03:06:05;1014.6;;;4.6;83.9
54439;BME280;40347;53.848;27.498;2023-04-06T03:11:21;1014.6;;;4.5;83.6
54439;BME280;40347;53.848;27.498;2023-04-06T03:15:53;1014.6;;;4.3;84.3
54439;BME280;40347;53.848;27.498;2023-04-06T03:21:11;1014.7;;;4.2;84.9
54439;BME280;40347;53.848;27.498;2023-04-06T03:25:53;1014.7;;;4.3;85.4
54439;BME280;40347;53.848;27.498;2023-04-06T03:31:05;1014.7;;;4.4;85.2
54439;BME280;40347;53.848;27.498;2023-04-06T03:36:05;1014.8;;;4.6;84.7
54439;BME280;40347;53.848;27.498;2023-04-06T03:41:21;1014.7;;;4.7;83.9
54439;BME280;40347;53.848;27.498;2023-04-06T03:46:21;1014.7;;;4.7;83.8
54439;BME280;40347;53.848;27.498;2023-04-06T03:51:33;1014.7;;;4.7;83.8
54439;BME280;40347;53.848;27.498;2023-04-06T03:55:53;1014.8;;;4.8;83.6
54439;BME280;40347;53.848;27.498;2023-04-06T04:01:03;1014.8;;;4.9;83.3
54439;BME280;40347;53.848;27.498;2023-04-06T04:06:05;1014.8;;;5;82.8
54439;BME280;40347;53.848;27.498;2023-04-06T04:11:27;1014.8;;;5;82.5
54439;BME280;40347;53.848;27.498;2023-04-06T04:16:21;1014.8;;;4.8;83.1
54439;BME280;40347;53.848;27.498;2023-04-06T04:20:53;1014.8;;;5;83.1
54439;BME280;40347;53.848;27.498;2023-04-06T04:26:21;1014.8;;;5.1;82.8
54439;BME280;40347;53.848;27.498;2023-04-06T04:31:21;1014.8;;;5.1;82.7
54439;BME280;40347;53.848;27.498;2023-04-06T04:35:53;1014.8;;;5.1;82.5
54439;BME280;40347;53.848;27.498;2023-04-06T04:40:53;1014.7;;;5.3;82.2
54439;BME280;40347;53.848;27.498;2023-04-06T04:46:11;1014.8;;;5.4;81.8
54439;BME280;40347;53.848;27.498;2023-04-06T04:51:04;1014.7;;;5.5;81.6
54439;BME280;40347;53.848;27.498;2023-04-06T04:56:05;1014.8;;;5.7;81
54439;BME280;40347;53.848;27.498;2023-04-06T05:00:53;1014.8;;;5.7;80.8
54439;BME280;40347;53.848;27.498;2023-04-06T05:06:21;1014.7;;;5.8;80.5
54439;BME280;40347;53.848;27.498;2023-04-06T05:11:05;1014.9;;;6;79.9
54439;BME280;40347;53.848;27.498;2023-04-06T05:16:05;1014.8;;;5.8;80.1
54439;BME280;40347;53.848;27.498;2023-04-06T05:21:11;1014.8;;;5.9;80.5
54439;BME280;40347;53.848;27.498;2023-04-06T05:25:53;1014.7;;;6.2;79.8
54439;BME280;40347;53.848;27.498;2023-04-06T05:31:09;1014.7;;;6.5;79.2
54439;BME280;40347;53.848;27.498;2023-04-06T05:36:09;1014.7;;;6.8;77.8
54439;BME280;40347;53.848;27.498;2023-04-06T05:41:21;1014.7;;;7.1;77
54439;BME280;40347;53.848;27.498;2023-04-06T05:46:21;1014.7;;;7.3;76
54439;BME280;40347;53.848;27.498;2023-04-06T05:51:19;1014.6;;;7.4;75.5
54439;BME280;40347;53.848;27.498;2023-04-06T05:56:09;1014.6;;;7.6;75.3
54439;BME280;40347;53.848;27.498;2023-04-06T06:01:11;1014.7;;;7.5;74.8
54439;BME280;40347;53.848;27.498;2023-04-06T06:05:53;1014.8;;;7.3;75.5
54439;BME280;40347;53.848;27.498;2023-04-06T06:10:53;1014.8;;;7.3;75.6
54439;BME280;40347;53.848;27.498;2023-04-06T06:15:59;1014.7;;;7.2;75.7
54439;BME280;40347;53.848;27.498;2023-04-06T06:21:09;1014.7;;;7.1;76
54439;BME280;40347;53.848;27.498;2023-04-06T06:25:59;1014.7;;;7.3;75.8
54439;BME280;40347;53.848;27.498;2023-04-06T06:31:19;1014.8;;;7.5;75.3
54439;BME280;40347;53.848;27.498;2023-04-06T06:36:09;1014.7;;;7.7;74.8
54439;BME280;40347;53.848;27.498;2023-04-06T06:41:01;1014.7;;;8.1;73.8
54439;BME280;40347;53.848;27.498;2023-04-06T06:46:05;1014.7;;;8.3;72.7
54439;BME280;40347;53.848;27.498;2023-04-06T06:51:05;1014.7;;;8.2;72.7
54439;BME280;40347;53.848;27.498;2023-04-06T06:55:53;1014.7;;;8.2;72.7
54439;BME280;40347;53.848;27.498;2023-04-06T07:01:09;1014.7;;;8.4;73.1
54439;BME280;40347;53.848;27.498;2023-04-06T07:05:53;1014.7;;;8.9;71.8
54439;BME280;40347;53.848;27.498;2023-04-06T07:10:53;1014.8;;;9.3;69.8
54439;BME280;40347;53.848;27.498;2023-04-06T07:15:53;1014.7;;;9.5;69.8
54439;BME280;40347;53.848;27.498;2023-04-06T07:21:19;1014.8;;;10;68.3
54439;BME280;40347;53.848;27.498;2023-04-06T07:25:53;1014.7;;;10.3;67.8
54439;BME280;40347;53.848;27.498;2023-04-06T07:30:53;1014.8;;;10.9;66.3
54439;BME280;40347;53.848;27.498;2023-04-06T07:35:53;1014.8;;;11.3;65.4
54439;BME280;40347;53.848;27.498;2023-04-06T07:40:59;1014.8;;;11.4;64.3
54439;BME280;40347;53.848;27.498;2023-04-06T07:46:19;1014.9;;;11;64.5
54439;BME280;40347;53.848;27.498;2023-04-06T07:51:06;1014.9;;;10.5;65.5
54439;BME280;40347;53.848;27.498;2023-04-06T07:55:53;1014.9;;;10.2;66.7
54439;BME280;40347;53.848;27.498;2023-04-06T08:00:53;1014.9;;;10.1;67.3
54439;BME280;40347;53.848;27.498;2023-04-06T08:05:53;1014.9;;;10.1;67.3
54439;BME280;40347;53.848;27.498;2023-04-06T08:11:09;1014.8;;;10.3;67.6
54439;BME280;40347;53.848;27.498;2023-04-06T08:16:08;1014.9;;;10.6;66.5
54439;BME280;40347;53.848;27.498;2023-04-06T08:21:09;1014.8;;;10.7;66.3
54439;BME280;40347;53.848;27.498;2023-04-06T08:26:07;1014.8;;;10.8;66
54439;BME280;40347;53.848;27.498;2023-04-06T08:30:53;1014.8;;;11.1;66.1
54439;BME280;40347;53.848;27.498;2023-04-06T08:36:29;1014.8;;;11;65.6
54439;BME280;40347;53.848;27.498;2023-04-06T08:41:07;1014.8;;;10.9;65.9
54439;BME280;40347;53.848;27.498;2023-04-06T08:46:10;1014.7;;;10.7;66.2
54439;BME280;40347;53.848;27.498;2023-04-06T08:50:53;1014.7;;;10.3;67.4
54439;BME280;40347;53.848;27.498;2023-04-06T08:55:59;1014.7;;;9.6;69.9
54439;BME280;40347;53.848;27.498;2023-04-06T09:00:53;1014.6;;;9.8;69.8
54439;BME280;40347;53.848;27.498;2023-04-06T09:05:53;1014.5;;;9.9;69.5
54439;BME280;40347;53.848;27.498;2023-04-06T09:11:04;1014.4;;;10.2;68.8
54439;BME280;40347;53.848;27.498;2023-04-06T09:16:01;1014.3;;;10.6;68
54439;BME280;40347;53.848;27.498;2023-04-06T09:21:00;1014.4;;;10.2;68.5
54439;BME280;40347;53.848;27.498;2023-04-06T09:26:05;1014.5;;;9.8;70.4
54439;BME280;40347;53.848;27.498;2023-04-06T09:31:05;1014.4;;;10.1;70.3
54439;BME280;40347;53.848;27.498;2023-04-06T09:36:11;1014.4;;;10.4;69.5
54439;BME280;40347;53.848;27.498;2023-04-06T09:41:07;1014.5;;;10.6;68.9
54439;BME280;40347;53.848;27.498;2023-04-06T09:46:05;1014.4;;;10.9;68.5
54439;BME280;40347;53.848;27.498;2023-04-06T09:51:19;1014.4;;;11.1;68
54439;BME280;40347;53.848;27.498;2023-04-06T09:55:54;1014.4;;;11;68.3
54439;BME280;40347;53.848;27.498;2023-04-06T10:01:08;1014.3;;;10.8;69.1
54439;BME280;40347;53.848;27.498;2023-04-06T10:06:10;1014.3;;;11;68.9
54439;BME280;40347;53.848;27.498;2023-04-06T10:11:22;1014.2;;;11.1;68.7
54439;BME280;40347;53.848;27.498;2023-04-06T10:15:53;1014.2;;;11.2;68.6
54439;BME280;40347;53.848;27.498;2023-04-06T10:20:54;1014.1;;;11.6;67.7
54439;BME280;40347;53.848;27.498;2023-04-06T10:26:12;1014;;;12;66.7
54439;BME280;40347;53.848;27.498;2023-04-06T10:31:26;1014;;;12;66.3
54439;BME280;40347;53.848;27.498;2023-04-06T10:36:09;1014;;;11.9;66.7
54439;BME280;40347;53.848;27.498;2023-04-06T10:41:16;1013.9;;;11.7;67.3
54439;BME280;40347;53.848;27.498;2023-04-06T10:46:06;1013.9;;;11.9;67.2
54439;BME280;40347;53.848;27.498;2023-04-06T10:50:53;1013.9;;;12.1;66.8
54439;BME280;40347;53.848;27.498;2023-04-06T10:56:21;1013.8;;;12.1;66
54439;BME280;40347;53.848;27.498;2023-04-06T11:00:54;1013.8;;;12.3;66
54439;BME280;40347;53.848;27.498;2023-04-06T11:06:01;1013.7;;;12.4;66.1
54439;BME280;40347;53.848;27.498;2023-04-06T11:11:06;1013.7;;;12.4;65.7
54439;BME280;40347;53.848;27.498;2023-04-06T11:15:59;1013.7;;;12.4;65.8
54439;BME280;40347;53.848;27.498;2023-04-06T11:21:20;1013.7;;;12.4;65.7
54439;BME280;40347;53.848;27.498;2023-04-06T11:26:11;1013.7;;;12.3;66
54439;BME280;40347;53.848;27.498;2023-04-06T11:30:53;1013.7;;;12.3;65.8
54439;BME280;40347;53.848;27.498;2023-04-06T11:36:06;1013.6;;;12.5;65.7
54439;BME280;40347;53.848;27.498;2023-04-06T11:41:00;1013.6;;;12.6;65.3
54439;BME280;40347;53.848;27.498;2023-04-06T11:45:59;1013.6;;;13;64.4
54439;BME280;40347;53.848;27.498;2023-04-06T11:51:05;1013.6;;;13.2;63.6
54439;BME280;40347;53.848;27.498;2023-04-06T11:56:07;1013.6;;;13.2;63.9
54439;BME280;40347;53.848;27.498;2023-04-06T12:01:05;1013.6;;;13.5;63.1
54439;BME280;40347;53.848;27.498;2023-04-06T12:06:09;1013.6;;;13.6;62.1
54439;BME280;40347;53.848;27.498;2023-04-06T12:11:19;1013.6;;;13.6;62.1
54439;BME280;40347;53.848;27.498;2023-04-06T12:16:15;1013.5;;;13.6;62.4
54439;BME280;40347;53.848;27.498;2023-04-06T12:21:03;1013.5;;;13.6;62.6
54439;BME280;40347;53.848;27.498;2023-04-06T12:26:05;1013.5;;;13.8;62
54439;BME280;40347;53.848;27.498;2023-04-06T12:30:59;1013.5;;;14;61.5
54439;BME280;40347;53.848;27.498;2023-04-06T12:35:53;1013.5;;;14.1;61.7
54439;BME280;40347;53.848;27.498;2023-04-06T12:40:53;1013.5;;;14.2;61.3
54439;BME280;40347;53.848;27.498;2023-04-06T12:46:01;1013.4;;;14.2;61.4
54439;BME280;40347;53.848;27.498;2023-04-06T12:50:54;1013.4;;;14.4;61.2
54439;BME280;40347;53.848;27.498;2023-04-06T12:55:54;1013.4;;;14.5;60.7
54439;BME280;40347;53.848;27.498;2023-04-06T13:00:54;1013.4;;;14.5;60.3
54439;BME280;40347;53.848;27.498;2023-04-06T13:05:53;1013.3;;;14.7;60.2
54439;BME280;40347;53.848;27.498;2023-04-06T13:10:54;1013.3;;;15;59.3
54439;BME280;40347;53.848;27.498;2023-04-06T13:16:06;1013.3;;;15;59.2
54439;BME280;40347;53.848;27.498;2023-04-06T13:21:00;1013.3;;;15;59.3
54439;BME280;40347;53.848;27.498;2023-04-06T13:26:08;1013.3;;;15.1;58.6
54439;BME280;40347;53.848;27.498;2023-04-06T13:31:21;1013.3;;;15.1;58.7
54439;BME280;40347;53.848;27.498;2023-04-06T13:35:53;1013.3;;;15.2;58.5
54439;BME280;40347;53.848;27.498;2023-04-06T13:40:53;1013.3;;;15.2;58.6
54439;BME280;40347;53.848;27.498;2023-04-06T13:45:59;1013.3;;;15.4;58.3
54439;BME280;40347;53.848;27.498;2023-04-06T13:50:53;1013.3;;;15.7;57.5
54439;BME280;40347;53.848;27.498;2023-04-06T13:56:06;1013.3;;;15.7;57.2
54439;BME280;40347;53.848;27.498;2023-04-06T14:01:15;1013.3;;;15.5;57.4
54439;BME280;40347;53.848;27.498;2023-04-06T14:06:09;1013.4;;;15.2;57.5
54439;BME280;40347;53.848;27.498;2023-04-06T14:10:59;1013.3;;;15.2;58.3
54439;BME280;40347;53.848;27.498;2023-04-06T14:16:17;1013.3;;;15.1;57.9
54439;BME280;40347;53.848;27.498;2023-04-06T14:21:11;1013.4;;;15.1;57.8
54439;BME280;40347;53.848;27.498;2023-04-06T14:26:00;1013.3;;;15;58.2
54439;BME280;40347;53.848;27.498;2023-04-06T14:31:12;1013.3;;;15.1;58.1
54439;BME280;40347;53.848;27.498;2023-04-06T14:35:53;1013.4;;;15.1;58
54439;BME280;40347;53.848;27.498;2023-04-06T14:41:22;1013.4;;;15;58.4
54439;BME280;40347;53.848;27.498;2023-04-06T14:45:53;1013.4;;;15;58.6
54439;BME280;40347;53.848;27.498;2023-04-06T14:50:54;1013.4;;;15;58.4
54439;BME280;40347;53.848;27.498;2023-04-06T14:56:19;1013.4;;;14.9;58.5
54439;BME280;40347;53.848;27.498;2023-04-06T15:01:12;1013.4;;;14.8;58.6
54439;BME280;40347;53.848;27.498;2023-04-06T15:06:20;1013.4;;;14.9;58.6
54439;BME280;40347;53.848;27.498;2023-04-06T15:11:12;1013.5;;;15;58.7
54439;BME280;40347;53.848;27.498;2023-04-06T15:16:06;1013.5;;;15;58.4
54439;BME280;40347;53.848;27.498;2023-04-06T15:21:00;1013.5;;;14.8;58.5
54439;BME280;40347;53.848;27.498;2023-04-06T15:26:24;1013.5;;;14.8;58.3
54439;BME280;40347;53.848;27.498;2023-04-06T15:31:12;1013.5;;;14.9;58.2
54439;BME280;40347;53.848;27.498;2023-04-06T15:35:54;1013.5;;;14.8;58
54439;BME280;40347;53.848;27.498;2023-04-06T15:41:04;1013.5;;;14.6;58
54439;BME280;40347;53.848;27.498;2023-04-06T15:45:54;1013.5;;;14.6;58
54439;BME280;40347;53.848;27.498;2023-04-06T15:51:12;1013.6;;;14.7;57.9
54439;BME280;40347;53.848;27.498;2023-04-06T15:56:08;1013.6;;;14.7;57.5
54439;BME280;40347;53.848;27.498;2023-04-06T16:01:13;1013.7;;;14.8;57.4
54439;BME280;40347;53.848;27.498;2023-04-06T16:05:54;1013.7;;;14.8;57.4
54439;BME280;40347;53.848;27.498;2023-04-06T16:11:12;1013.7;;;14.9;57.8
54439;BME280;40347;53.848;27.498;2023-04-06T16:15:54;1013.7;;;15;57.3
54439;BME280;40347;53.848;27.498;2023-04-06T16:21:08;1013.8;;;14.9;57.1
54439;BME280;40347;53.848;27.498;2023-04-06T16:25:54;1013.8;;;14.9;57.7
54439;BME280;40347;53.848;27.498;2023-04-06T16:30:54;1013.8;;;14.8;56.9
54439;BME280;40347;53.848;27.498;2023-04-06T16:35:54;1013.8;;;14.7;56.9
54439;BME280;40347;53.848;27.498;2023-04-06T16:41:00;1013.8;;;14.8;57.4
54439;BME280;40347;53.848;27.498;2023-04-06T16:46:06;1013.9;;;14.8;56.7
54439;BME280;40347;53.848;27.498;2023-04-06T16:51:06;1013.9;;;14.8;56.7
54439;BME280;40347;53.848;27.498;2023-04-06T16:56:04;1014;;;14.6;56.5
54439;BME280;40347;53.848;27.498;2023-04-06T17:01:19;1014;;;14.5;57.2
54439;BME280;40347;53.848;27.498;2023-04-06T17:06:06;1014;;;14.3;57.2
54439;BME280;40347;53.848;27.498;2023-04-06T17:10:54;1014.1;;;14.3;57.1
54439;BME280;40347;53.848;27.498;2023-04-06T17:16:06;1014.1;;;14.3;57.3
54439;BME280;40347;53.848;27.498;2023-04-06T17:21:05;1014.2;;;14.2;57.1
54439;BME280;40347;53.848;27.498;2023-04-06T17:25:54;1014.2;;;14.1;57.6
54439;BME280;40347;53.848;27.498;2023-04-06T17:31:00;1014.2;;;13.9;58
54439;BME280;40347;53.848;27.498;2023-04-06T17:36:08;1014.3;;;13.9;58.3
54439;BME280;40347;53.848;27.498;2023-04-06T17:41:06;1014.3;;;13.8;58.5
54439;BME280;40347;53.848;27.498;2023-04-06T17:45:54;1014.3;;;13.8;58.6
54439;BME280;40347;53.848;27.498;2023-04-06T17:51:00;1014.4;;;13.6;58.8
54439;BME280;40347;53.848;27.498;2023-04-06T17:56:00;1014.4;;;13.6;59
54439;BME280;40347;53.848;27.498;2023-04-06T18:01:20;1014.4;;;13.5;59.1
54439;BME280;40347;53.848;27.498;2023-04-06T18:06:10;1014.4;;;13.5;59.1
54439;BME280;40347;53.848;27.498;2023-04-06T18:11:20;1014.4;;;13.6;59.1
54439;BME280;40347;53.848;27.498;2023-04-06T18:16:06;1014.4;;;13.6;59
54439;BME280;40347;53.848;27.498;2023-04-06T18:20:54;1014.4;;;13.6;59
54439;BME280;40347;53.848;27.498;2023-04-06T18:25:54;1014.5;;;13.5;59.1
54439;BME280;40347;53.848;27.498;2023-04-06T18:31:06;1014.5;;;13.4;59.2
54439;BME280;40347;53.848;27.498;2023-04-06T18:36:32;1014.5;;;13.4;59.1
54439;BME280;40347;53.848;27.498;2023-04-06T18:40:54;1014.5;;;13.5;58.7
54439;BME280;40347;53.848;27.498;2023-04-06T18:46:09;1014.5;;;13.4;58.3
54439;BME280;40347;53.848;27.498;2023-04-06T18:50:56;1014.5;;;13.4;57.9
54439;BME280;40347;53.848;27.498;2023-04-06T18:56:12;1014.5;;;13.4;57.6
54439;BME280;40347;53.848;27.498;2023-04-06T19:01:19;1014.6;;;13.4;57.1
54439;BME280;40347;53.848;27.498;2023-04-06T19:06:06;1014.6;;;13.3;56.9
54439;BME280;40347;53.848;27.498;2023-04-06T19:11:04;1014.6;;;13.2;56.7
54439;BME280;40347;53.848;27.498;2023-04-06T19:16:20;1014.6;;;13.3;57.1
54439;BME280;40347;53.848;27.498;2023-04-06T19:21:12;1014.6;;;13.3;56.6
54439;BME280;40347;53.848;27.498;2023-04-06T19:26:07;1014.6;;;13.2;56
54439;BME280;40347;53.848;27.498;2023-04-06T19:31:06;1014.6;;;13.2;56
54439;BME280;40347;53.848;27.498;2023-04-06T19:36:26;1014.6;;;13.3;55.9
54439;BME280;40347;53.848;27.498;2023-04-06T19:40:54;1014.7;;;13.3;55.4
54439;BME280;40347;53.848;27.498;2023-04-06T19:46:06;1014.7;;;13.3;55.6
54439;BME280;40347;53.848;27.498;2023-04-06T19:51:04;1014.6;;;13.2;55.4
54439;BME280;40347;53.848;27.498;2023-04-06T19:56:06;1014.6;;;13.1;55.2
54439;BME280;40347;53.848;27.498;2023-04-06T20:01:10;1014.6;;;13;55.1
54439;BME280;40347;53.848;27.498;2023-04-06T20:05:54;1014.6;;;12.9;55.5
54439;BME280;40347;53.848;27.498;2023-04-06T20:10:58;1014.6;;;12.8;55.7
54439;BME280;40347;53.848;27.498;2023-04-06T20:16:20;1014.6;;;12.8;56
54439;BME280;40347;53.848;27.498;2023-04-06T20:20:54;1014.5;;;12.7;56.1
54439;BME280;40347;53.848;27.498;2023-04-06T20:26:00;1014.6;;;12.7;56.3
54439;BME280;40347;53.848;27.498;2023-04-06T20:31:08;1014.5;;;12.6;56.3
54439;BME280;40347;53.848;27.498;2023-04-06T20:36:06;1014.5;;;12.4;56.7
54439;BME280;40347;53.848;27.498;2023-04-06T20:40:54;1014.5;;;12.3;56.8
54439;BME280;40347;53.848;27.498;2023-04-06T20:45:54;1014.5;;;12.4;56.9
54439;BME280;40347;53.848;27.498;2023-04-06T20:51:19;1014.6;;;12.5;56.5
54439;BME280;40347;53.848;27.498;2023-04-06T20:55:54;1014.6;;;12.4;56.6
54439;BME280;40347;53.848;27.498;2023-04-06T21:01:12;1014.6;;;12.3;56.8
54439;BME280;40347;53.848;27.498;2023-04-06T21:05:54;1014.6;;;12.1;57
54439;BME280;40347;53.848;27.498;2023-04-06T21:10:54;1014.6;;;12.1;57.2
54439;BME280;40347;53.848;27.498;2023-04-06T21:15:54;1014.6;;;12;57.2
54439;BME280;40347;53.848;27.498;2023-04-06T21:21:20;1014.6;;;12;57.3
54439;BME280;40347;53.848;27.498;2023-04-06T21:26:00;1014.5;;;11.8;57.3
54439;BME280;40347;53.848;27.498;2023-04-06T21:31:06;1014.5;;;11.8;57.5
54439;BME280;40347;53.848;27.498;2023-04-06T21:36:24;1014.6;;;11.7;57.6
54439;BME280;40347;53.848;27.498;2023-04-06T21:40:54;1014.6;;;11.5;57.9
54439;BME280;40347;53.848;27.498;2023-04-06T21:45:54;1014.6;;;11.5;58.2
54439;BME280;40347;53.848;27.498;2023-04-06T21:50:54;1014.5;;;11.5;58.2
54439;BME280;40347;53.848;27.498;2023-04-06T21:56:04;1014.6;;;11.4;58.1
54439;BME280;40347;53.848;27.498;2023-04-06T22:00:54;1014.6;;;11.3;58.3
54439;BME280;40347;53.848;27.498;2023-04-06T22:06:01;1014.6;;;11.3;58.5
54439;BME280;40347;53.848;27.498;2023-04-06T22:11:08;1014.5;;;11.3;58.6
54439;BME280;40347;53.848;27.498;2023-04-06T22:15:54;1014.5;;;11.2;58.7
54439;BME280;40347;53.848;27.498;2023-04-06T22:20:54;1014.5;;;11.1;58.7
54439;BME280;40347;53.848;27.498;2023-04-06T22:25:54;1014.5;;;10.9;59
54439;BME280;40347;53.848;27.498;2023-04-06T22:30:54;1014.5;;;10.9;59.3
54439;BME280;40347;53.848;27.498;2023-04-06T22:35:54;1014.5;;;10.8;59.4
54439;BME280;40347;53.848;27.498;2023-04-06T22:41:00;1014.4;;;10.9;59.5
54439;BME280;40347;53.848;27.498;2023-04-06T22:46:08;1014.5;;;11;59.2
54439;BME280;40347;53.848;27.498;2023-04-06T22:51:06;1014.4;;;11;59.1
54439;BME280;40347;53.848;27.498;2023-04-06T22:56:06;1014.4;;;10.8;59.3
54439;BME280;40347;53.848;27.498;2023-04-06T23:01:20;1014.4;;;10.7;59.6
54439;BME280;40347;53.848;27.498;2023-04-06T23:06:00;1014.4;;;10.7;59.7
54439;BME280;40347;53.848;27.498;2023-04-06T23:11:20;1014.4;;;10.8;59.3
54439;BME280;40347;53.848;27.498;2023-04-06T23:16:12;1014.4;;;10.9;59.2
54439;BME280;40347;53.848;27.498;2023-04-06T23:21:00;1014.3;;;10.9;59
54439;BME280;40347;53.848;27.498;2023-04-06T23:26:20;1014.3;;;11;58.7
54439;BME280;40347;53.848;27.498;2023-04-06T23:31:12;1014.3;;;10.9;58.9
54439;BME280;40347;53.848;27.498;2023-04-06T23:36:18;1014.2;;;10.8;59
54439;BME280;40347;53.848;27.498;2023-04-06T23:40:54;1014.2;;;10.7;59.2
54439;BME280;40347;53.848;27.498;2023-04-06T23:46:00;1014.2;;;10.5;59.4
54439;BME280;40347;53.848;27.498;2023-04-06T23:51:20;1014.2;;;10.5;59.6
54439;BME280;40347;53.848;27.498;2023-04-06T23:56:00;1014.2;;;10.5;59.6
